sensor_id;sensor_type;location;lat;lon;timestamp;pressure;altitude;pressure_sealevel;temperature;humidity
53270;BME280;39159;45.634;9.420;2022-08-30T00:02:29;99067.44;;;23.52;79.73
53270;BME280;39159;45.634;9.420;2022-08-30T00:04:54;99060.66;;;23.50;80.05
53270;BME280;39159;45.634;9.420;2022-08-30T00:07:20;99060.66;;;23.46;79.79
53270;BME280;39159;45.634;9.420;2022-08-30T00:09:45;99069.38;;;23.45;79.83
53270;BME280;39159;45.634;9.420;2022-08-30T00:12:10;99068.22;;;23.46;79.75
53270;BME280;39159;45.634;9.420;2022-08-30T00:14:36;99060.22;;;23.41;80.04
53270;BME280;39159;45.634;9.420;2022-08-30T00:17:01;99063.81;;;23.41;80.32
53270;BME280;39159;45.634;9.420;2022-08-30T00:19:26;99060.63;;;23.43;80.49
53270;BME280;39159;45.634;9.420;2022-08-30T00:21:52;99055.88;;;23.47;80.38
53270;BME280;39159;45.634;9.420;2022-08-30T00:24:17;99052.28;;;23.39;80.75
53270;BME280;39159;45.634;9.420;2022-08-30T00:26:42;99053.84;;;23.36;80.79
53270;BME280;39159;45.634;9.420;2022-08-30T00:29:07;99055.81;;;23.32;81.09
53270;BME280;39159;45.634;9.420;2022-08-30T00:31:33;99052.22;;;23.32;80.39
53270;BME280;39159;45.634;9.420;2022-08-30T00:33:58;99043.88;;;23.28;80.64
53270;BME280;39159;45.634;9.420;2022-08-30T00:36:23;99051.03;;;23.26;80.58
53270;BME280;39159;45.634;9.420;2022-08-30T00:38:48;99044.63;;;23.25;80.74
53270;BME280;39159;45.634;9.420;2022-08-30T00:41:14;99047.41;;;23.22;79.98
53270;BME280;39159;45.634;9.420;2022-08-30T00:43:39;99047.00;;;23.20;80.61
53270;BME280;39159;45.634;9.420;2022-08-30T00:46:05;99044.63;;;23.22;80.58
53270;BME280;39159;45.634;9.420;2022-08-30T00:48:32;99045.41;;;23.18;80.66
53270;BME280;39159;45.634;9.420;2022-08-30T00:51:01;99050.97;;;23.15;81.53
53270;BME280;39159;45.634;9.420;2022-08-30T00:53:31;99043.78;;;23.10;81.13
53270;BME280;39159;45.634;9.420;2022-08-30T00:55:58;99047.34;;;23.04;81.38
53270;BME280;39159;45.634;9.420;2022-08-30T00:58:27;99046.94;;;23.02;82.25
53270;BME280;39159;45.634;9.420;2022-08-30T01:00:53;99048.09;;;23.01;82.46
53270;BME280;39159;45.634;9.420;2022-08-30T01:03:20;99042.16;;;23.02;82.25
53270;BME280;39159;45.634;9.420;2022-08-30T01:05:46;99046.13;;;23.05;81.88
53270;BME280;39159;45.634;9.420;2022-08-30T01:08:12;99049.72;;;23.05;81.85
53270;BME280;39159;45.634;9.420;2022-08-30T01:10:39;99045.75;;;23.06;82.91
53270;BME280;39159;45.634;9.420;2022-08-30T01:13:05;99048.94;;;23.08;82.71
53270;BME280;39159;45.634;9.420;2022-08-30T01:15:32;99043.38;;;23.08;82.47
53270;BME280;39159;45.634;9.420;2022-08-30T01:17:57;99046.97;;;23.12;83.14
53270;BME280;39159;45.634;9.420;2022-08-30T01:20:24;99046.19;;;23.15;82.72
53270;BME280;39159;45.634;9.420;2022-08-30T01:25:26;99040.63;;;23.15;82.67
53270;BME280;39159;45.634;9.420;2022-08-30T01:27:58;99042.19;;;23.09;83.26
53270;BME280;39159;45.634;9.420;2022-08-30T01:30:25;99048.16;;;23.08;83.07
53270;BME280;39159;45.634;9.420;2022-08-30T01:32:54;99047.72;;;23.02;82.87
53270;BME280;39159;45.634;9.420;2022-08-30T01:35:20;99055.66;;;23.00;83.41
53270;BME280;39159;45.634;9.420;2022-08-30T01:37:45;99041.28;;;22.94;83.42
53270;BME280;39159;45.634;9.420;2022-08-30T01:40:12;99039.69;;;22.93;82.98
53270;BME280;39159;45.634;9.420;2022-08-30T01:42:38;99041.25;;;22.91;83.01
53270;BME280;39159;45.634;9.420;2022-08-30T01:45:03;99045.63;;;22.88;82.89
53270;BME280;39159;45.634;9.420;2022-08-30T01:47:29;99048.38;;;22.85;82.43
53270;BME280;39159;45.634;9.420;2022-08-30T01:49:54;99057.09;;;22.83;83.15
53270;BME280;39159;45.634;9.420;2022-08-30T01:52:20;99049.16;;;22.82;83.17
53270;BME280;39159;45.634;9.420;2022-08-30T01:54:45;99050.75;;;22.79;82.99
53270;BME280;39159;45.634;9.420;2022-08-30T01:57:12;99045.97;;;22.80;83.54
53270;BME280;39159;45.634;9.420;2022-08-30T01:59:38;99049.91;;;22.75;83.92
53270;BME280;39159;45.634;9.420;2022-08-30T02:02:04;99047.88;;;22.72;84.50
53270;BME280;39159;45.634;9.420;2022-08-30T02:04:30;99048.69;;;22.69;84.33
53270;BME280;39159;45.634;9.420;2022-08-30T02:06:55;99045.53;;;22.70;84.48
53270;BME280;39159;45.634;9.420;2022-08-30T02:09:20;99044.31;;;22.71;84.54
53270;BME280;39159;45.634;9.420;2022-08-30T02:11:46;99043.50;;;22.67;84.41
53270;BME280;39159;45.634;9.420;2022-08-30T02:14:13;99037.91;;;22.64;85.14
53270;BME280;39159;45.634;9.420;2022-08-30T02:16:38;99029.16;;;22.62;85.47
53270;BME280;39159;45.634;9.420;2022-08-30T02:19:04;99039.50;;;22.61;85.74
53270;BME280;39159;45.634;9.420;2022-08-30T02:21:30;99032.69;;;22.59;85.30
53270;BME280;39159;45.634;9.420;2022-08-30T02:23:55;99035.47;;;22.55;86.25
53270;BME280;39159;45.634;9.420;2022-08-30T02:26:21;99035.06;;;22.53;85.58
53270;BME280;39159;45.634;9.420;2022-08-30T02:28:46;99034.69;;;22.54;86.04
53270;BME280;39159;45.634;9.420;2022-08-30T02:31:12;99037.84;;;22.53;86.24
53270;BME280;39159;45.634;9.420;2022-08-30T02:33:37;99034.28;;;22.52;86.79
53270;BME280;39159;45.634;9.420;2022-08-30T02:36:04;99035.06;;;22.53;86.44
53270;BME280;39159;45.634;9.420;2022-08-30T02:38:29;99036.22;;;22.48;86.65
53270;BME280;39159;45.634;9.420;2022-08-30T02:40:54;99028.28;;;22.50;86.70
53270;BME280;39159;45.634;9.420;2022-08-30T02:43:20;99034.69;;;22.54;86.44
53270;BME280;39159;45.634;9.420;2022-08-30T02:45:45;99047.38;;;22.55;85.94
53270;BME280;39159;45.634;9.420;2022-08-30T02:48:10;99041.41;;;22.53;86.82
53270;BME280;39159;45.634;9.420;2022-08-30T02:50:40;99039.00;;;22.52;87.42
53270;BME280;39159;45.634;9.420;2022-08-30T02:53:05;99040.25;;;22.54;86.98
53270;BME280;39159;45.634;9.420;2022-08-30T02:55:30;99035.84;;;22.53;87.19
53270;BME280;39159;45.634;9.420;2022-08-30T02:57:55;99033.88;;;22.54;87.07
53270;BME280;39159;45.634;9.420;2022-08-30T03:00:21;99039.03;;;22.55;86.66
53270;BME280;39159;45.634;9.420;2022-08-30T03:02:46;99032.28;;;22.56;87.09
53270;BME280;39159;45.634;9.420;2022-08-30T03:05:12;99030.69;;;22.55;86.44
53270;BME280;39159;45.634;9.420;2022-08-30T03:07:41;99026.34;;;22.54;86.33
53270;BME280;39159;45.634;9.420;2022-08-30T03:10:07;99033.06;;;22.53;86.25
53270;BME280;39159;45.634;9.420;2022-08-30T03:12:32;99035.03;;;22.49;86.44
53270;BME280;39159;45.634;9.420;2022-08-30T03:14:58;99026.66;;;22.46;85.95
53270;BME280;39159;45.634;9.420;2022-08-30T03:17:24;99027.47;;;22.46;85.97
53270;BME280;39159;45.634;9.420;2022-08-30T03:19:49;99021.09;;;22.46;86.13
53270;BME280;39159;45.634;9.420;2022-08-30T03:22:15;99019.88;;;22.43;86.07
53270;BME280;39159;45.634;9.420;2022-08-30T03:24:41;99012.69;;;22.39;86.44
53270;BME280;39159;45.634;9.420;2022-08-30T03:27:06;99017.47;;;22.38;86.36
53270;BME280;39159;45.634;9.420;2022-08-30T03:29:32;99012.28;;;22.33;86.47
53270;BME280;39159;45.634;9.420;2022-08-30T03:31:57;99009.84;;;22.28;87.28
53270;BME280;39159;45.634;9.420;2022-08-30T03:34:23;99020.56;;;22.26;87.39
53270;BME280;39159;45.634;9.420;2022-08-30T03:36:49;99010.19;;;22.23;87.83
53270;BME280;39159;45.634;9.420;2022-08-30T03:39:15;99012.97;;;22.23;87.71
53270;BME280;39159;45.634;9.420;2022-08-30T03:41:40;99027.63;;;22.20;88.63
53270;BME280;39159;45.634;9.420;2022-08-30T03:44:05;99028.72;;;22.11;89.00
53270;BME280;39159;45.634;9.420;2022-08-30T03:46:31;99035.03;;;22.05;89.52
53270;BME280;39159;45.634;9.420;2022-08-30T03:48:56;99036.63;;;22.06;89.84
53270;BME280;39159;45.634;9.420;2022-08-30T03:51:22;99034.66;;;22.06;89.87
53270;BME280;39159;45.634;9.420;2022-08-30T03:53:47;99034.69;;;22.10;89.58
53270;BME280;39159;45.634;9.420;2022-08-30T03:56:12;99034.72;;;22.13;89.31
53270;BME280;39159;45.634;9.420;2022-08-30T03:58:38;99040.69;;;22.15;89.14
53270;BME280;39159;45.634;9.420;2022-08-30T04:01:04;99041.53;;;22.20;88.99
53270;BME280;39159;45.634;9.420;2022-08-30T04:03:30;99037.19;;;22.22;88.87
53270;BME280;39159;45.634;9.420;2022-08-30T04:05:55;99044.75;;;22.25;88.55
53270;BME280;39159;45.634;9.420;2022-08-30T04:08:21;99047.94;;;22.27;88.33
53270;BME280;39159;45.634;9.420;2022-08-30T04:10:47;99052.72;;;22.27;88.20
53270;BME280;39159;45.634;9.420;2022-08-30T04:13:13;99052.72;;;22.23;88.82
53270;BME280;39159;45.634;9.420;2022-08-30T04:15:38;99054.28;;;22.24;89.08
53270;BME280;39159;45.634;9.420;2022-08-30T04:18:03;99055.09;;;22.25;88.42
53270;BME280;39159;45.634;9.420;2022-08-30T04:20:28;99063.44;;;22.25;89.38
53270;BME280;39159;45.634;9.420;2022-08-30T04:22:54;99069.41;;;22.27;88.68
53270;BME280;39159;45.634;9.420;2022-08-30T04:25:19;99074.97;;;22.27;88.63
53270;BME280;39159;45.634;9.420;2022-08-30T04:27:44;99077.31;;;22.25;88.86
53270;BME280;39159;45.634;9.420;2022-08-30T04:30:10;99079.63;;;22.19;89.82
53270;BME280;39159;45.634;9.420;2022-08-30T04:32:36;99082.75;;;22.14;89.45
53270;BME280;39159;45.634;9.420;2022-08-30T04:35:03;99084.00;;;22.17;89.65
53270;BME280;39159;45.634;9.420;2022-08-30T04:37:28;99082.75;;;22.14;89.21
53270;BME280;39159;45.634;9.420;2022-08-30T04:39:54;99088.28;;;22.10;90.11
53270;BME280;39159;45.634;9.420;2022-08-30T04:42:19;99093.44;;;22.08;90.48
53270;BME280;39159;45.634;9.420;2022-08-30T04:44:45;99090.66;;;22.12;90.31
53270;BME280;39159;45.634;9.420;2022-08-30T04:47:10;99095.00;;;22.09;90.52
53270;BME280;39159;45.634;9.420;2022-08-30T04:49:35;99091.06;;;22.10;90.20
53270;BME280;39159;45.634;9.420;2022-08-30T04:52:01;99089.09;;;22.11;89.43
53270;BME280;39159;45.634;9.420;2022-08-30T04:54:26;99092.28;;;22.13;89.37
53270;BME280;39159;45.634;9.420;2022-08-30T04:56:51;99099.41;;;22.10;89.62
53270;BME280;39159;45.634;9.420;2022-08-30T04:59:17;99095.84;;;22.10;89.80
53270;BME280;39159;45.634;9.420;2022-08-30T05:01:42;99114.53;;;22.13;89.08
53270;BME280;39159;45.634;9.420;2022-08-30T05:04:07;99109.00;;;22.17;88.37
53270;BME280;39159;45.634;9.420;2022-08-30T05:06:33;99110.97;;;22.16;88.69
53270;BME280;39159;45.634;9.420;2022-08-30T05:08:58;99116.94;;;22.18;88.24
53270;BME280;39159;45.634;9.420;2022-08-30T05:11:25;99115.81;;;22.23;88.23
53270;BME280;39159;45.634;9.420;2022-08-30T05:13:51;99122.59;;;22.25;88.06
53270;BME280;39159;45.634;9.420;2022-08-30T05:16:16;99113.88;;;22.23;88.45
53270;BME280;39159;45.634;9.420;2022-08-30T05:18:43;99116.66;;;22.23;88.11
53270;BME280;39159;45.634;9.420;2022-08-30T05:21:11;99110.25;;;22.23;88.48
53270;BME280;39159;45.634;9.420;2022-08-30T05:23:36;99109.00;;;22.17;88.71
53270;BME280;39159;45.634;9.420;2022-08-30T05:26:06;99108.97;;;22.13;89.82
53270;BME280;39159;45.634;9.420;2022-08-30T05:28:32;99122.38;;;22.07;90.57
53270;BME280;39159;45.634;9.420;2022-08-30T05:30:57;99125.56;;;22.06;90.79
53270;BME280;39159;45.634;9.420;2022-08-30T05:33:22;99119.25;;;22.09;90.88
53270;BME280;39159;45.634;9.420;2022-08-30T05:35:47;99122.06;;;22.12;90.32
53270;BME280;39159;45.634;9.420;2022-08-30T05:38:13;99123.66;;;22.13;89.55
53270;BME280;39159;45.634;9.420;2022-08-30T05:40:41;99123.28;;;22.19;88.96
53270;BME280;39159;45.634;9.420;2022-08-30T05:43:08;99129.28;;;22.21;89.05
53270;BME280;39159;45.634;9.420;2022-08-30T05:45:34;99124.16;;;22.23;89.31
53270;BME280;39159;45.634;9.420;2022-08-30T05:47:59;99138.88;;;22.23;89.08
53270;BME280;39159;45.634;9.420;2022-08-30T05:50:25;99139.75;;;22.31;89.00
53270;BME280;39159;45.634;9.420;2022-08-30T05:52:51;99148.09;;;22.31;89.34
53270;BME280;39159;45.634;9.420;2022-08-30T05:55:16;99144.94;;;22.36;89.25
53270;BME280;39159;45.634;9.420;2022-08-30T05:57:43;99145.44;;;22.45;90.39
53270;BME280;39159;45.634;9.420;2022-08-30T06:00:10;99138.75;;;22.53;87.99
53270;BME280;39159;45.634;9.420;2022-08-30T06:02:36;99138.31;;;22.48;88.53
53270;BME280;39159;45.634;9.420;2022-08-30T06:05:02;99145.41;;;22.42;89.43
53270;BME280;39159;45.634;9.420;2022-08-30T06:07:27;99152.56;;;22.43;90.51
53270;BME280;39159;45.634;9.420;2022-08-30T06:09:52;99145.38;;;22.38;91.58
53270;BME280;39159;45.634;9.420;2022-08-30T06:12:18;99154.50;;;22.39;92.14
53270;BME280;39159;45.634;9.420;2022-08-30T06:14:43;99146.56;;;22.41;91.04
53270;BME280;39159;45.634;9.420;2022-08-30T06:17:08;99157.38;;;22.49;91.24
53270;BME280;39159;45.634;9.420;2022-08-30T06:19:34;99155.88;;;22.55;91.49
53270;BME280;39159;45.634;9.420;2022-08-30T06:21:59;99149.94;;;22.61;91.38
53270;BME280;39159;45.634;9.420;2022-08-30T06:24:25;99144.03;;;22.66;91.32
53270;BME280;39159;45.634;9.420;2022-08-30T06:26:50;99146.50;;;22.74;90.99
53270;BME280;39159;45.634;9.420;2022-08-30T06:29:19;99138.97;;;22.79;90.57
53270;BME280;39159;45.634;9.420;2022-08-30T06:31:45;99139.41;;;22.84;91.02
53270;BME280;39159;45.634;9.420;2022-08-30T06:34:11;99140.78;;;23.01;89.73
53270;BME280;39159;45.634;9.420;2022-08-30T06:36:37;99143.31;;;23.28;88.36
53270;BME280;39159;45.634;9.420;2022-08-30T06:39:03;99146.22;;;23.46;88.00
53270;BME280;39159;45.634;9.420;2022-08-30T06:41:29;99138.69;;;23.61;86.99
53270;BME280;39159;45.634;9.420;2022-08-30T06:43:56;99140.81;;;23.82;86.20
53270;BME280;39159;45.634;9.420;2022-08-30T06:46:23;99132.53;;;24.10;85.77
53270;BME280;39159;45.634;9.420;2022-08-30T06:48:49;99134.97;;;24.33;83.64
53270;BME280;39159;45.634;9.420;2022-08-30T06:51:19;99123.06;;;24.51;81.71
53270;BME280;39159;45.634;9.420;2022-08-30T06:53:44;99123.47;;;24.64;80.28
53270;BME280;39159;45.634;9.420;2022-08-30T06:56:10;99128.22;;;24.85;78.85
53270;BME280;39159;45.634;9.420;2022-08-30T06:58:37;99119.03;;;24.98;77.38
53270;BME280;39159;45.634;9.420;2022-08-30T07:01:03;99115.81;;;25.18;76.71
53270;BME280;39159;45.634;9.420;2022-08-30T07:03:29;99120.63;;;25.25;76.06
53270;BME280;39159;45.634;9.420;2022-08-30T07:05:55;99122.97;;;25.40;76.58
53270;BME280;39159;45.634;9.420;2022-08-30T07:08:20;99127.38;;;25.34;76.32
53270;BME280;39159;45.634;9.420;2022-08-30T07:10:47;99131.75;;;25.46;75.54
53270;BME280;39159;45.634;9.420;2022-08-30T07:13:12;99142.50;;;25.48;76.09
53270;BME280;39159;45.634;9.420;2022-08-30T07:15:39;99142.16;;;25.20;79.64
53270;BME280;39159;45.634;9.420;2022-08-30T07:18:05;99140.56;;;25.23;79.03
53270;BME280;39159;45.634;9.420;2022-08-30T07:20:49;99141.34;;;25.27;78.70
53270;BME280;39159;45.634;9.420;2022-08-30T07:23:14;99138.19;;;25.03;77.58
53270;BME280;39159;45.634;9.420;2022-08-30T07:25:39;99140.94;;;25.18;78.30
53270;BME280;39159;45.634;9.420;2022-08-30T07:28:05;99137.38;;;25.10;76.80
53270;BME280;39159;45.634;9.420;2022-08-30T07:30:31;99145.75;;;25.07;75.53
53270;BME280;39159;45.634;9.420;2022-08-30T07:32:56;99144.19;;;25.23;75.50
53270;BME280;39159;45.634;9.420;2022-08-30T07:35:22;99139.34;;;25.35;76.78
53270;BME280;39159;45.634;9.420;2022-08-30T07:37:47;99138.50;;;25.45;75.19
53270;BME280;39159;45.634;9.420;2022-08-30T07:40:12;99131.31;;;25.51;72.75
53270;BME280;39159;45.634;9.420;2022-08-30T07:42:38;99138.47;;;25.59;70.62
53270;BME280;39159;45.634;9.420;2022-08-30T07:45:05;99145.56;;;25.78;70.39
53270;BME280;39159;45.634;9.420;2022-08-30T07:47:31;99138.41;;;25.74;69.99
53270;BME280;39159;45.634;9.420;2022-08-30T07:49:57;99136.38;;;25.89;69.42
53270;BME280;39159;45.634;9.420;2022-08-30T07:52:23;99140.22;;;26.16;68.28
53270;BME280;39159;45.634;9.420;2022-08-30T07:54:48;99131.03;;;26.12;66.72
53270;BME280;39159;45.634;9.420;2022-08-30T07:57:13;99136.97;;;26.25;66.53
53270;BME280;39159;45.634;9.420;2022-08-30T07:59:38;99132.78;;;26.55;66.81
53270;BME280;39159;45.634;9.420;2022-08-30T08:02:04;99137.66;;;26.92;65.21
53270;BME280;39159;45.634;9.420;2022-08-30T08:04:29;99132.88;;;26.93;62.36
53270;BME280;39159;45.634;9.420;2022-08-30T08:06:55;99139.66;;;26.95;63.00
53270;BME280;39159;45.634;9.420;2022-08-30T08:09:21;99134.25;;;26.74;65.23
53270;BME280;39159;45.634;9.420;2022-08-30T08:11:46;99142.72;;;26.63;65.41
53270;BME280;39159;45.634;9.420;2022-08-30T08:14:11;99131.13;;;26.61;65.24
53270;BME280;39159;45.634;9.420;2022-08-30T08:16:37;99134.13;;;26.88;63.93
53270;BME280;39159;45.634;9.420;2022-08-30T08:19:03;99138.09;;;26.91;63.49
53270;BME280;39159;45.634;9.420;2022-08-30T08:21:32;99143.16;;;27.06;61.66
53270;BME280;39159;45.634;9.420;2022-08-30T08:23:58;99141.03;;;27.18;60.86
53270;BME280;39159;45.634;9.420;2022-08-30T08:26:23;99145.41;;;27.19;59.90
53270;BME280;39159;45.634;9.420;2022-08-30T08:28:49;99132.63;;;27.18;59.93
53270;BME280;39159;45.634;9.420;2022-08-30T08:31:15;99133.59;;;27.00;60.00
53270;BME280;39159;45.634;9.420;2022-08-30T08:33:41;99141.28;;;26.93;60.59
53270;BME280;39159;45.634;9.420;2022-08-30T08:36:06;99133.84;;;26.75;61.63
53270;BME280;39159;45.634;9.420;2022-08-30T08:38:31;99145.44;;;26.74;61.61
53270;BME280;39159;45.634;9.420;2022-08-30T08:41:10;99148.03;;;26.46;63.47
53270;BME280;39159;45.634;9.420;2022-08-30T08:43:37;99143.97;;;26.55;64.17
53270;BME280;39159;45.634;9.420;2022-08-30T08:46:04;99144.56;;;26.80;64.55
53270;BME280;39159;45.634;9.420;2022-08-30T08:48:47;99157.34;;;26.85;64.35
53270;BME280;39159;45.634;9.420;2022-08-30T08:51:14;99167.28;;;26.93;63.38
53270;BME280;39159;45.634;9.420;2022-08-30T08:54:00;99168.25;;;27.17;62.80
53270;BME280;39159;45.634;9.420;2022-08-30T08:56:28;99168.09;;;27.35;61.49
53270;BME280;39159;45.634;9.420;2022-08-30T08:58:54;99166.50;;;27.34;61.67
53270;BME280;39159;45.634;9.420;2022-08-30T09:01:22;99165.81;;;27.23;62.30
53270;BME280;39159;45.634;9.420;2022-08-30T09:03:48;99156.31;;;27.09;62.76
53270;BME280;39159;45.634;9.420;2022-08-30T09:08:38;99160.84;;;26.96;61.39
53270;BME280;39159;45.634;9.420;2022-08-30T09:11:04;99161.31;;;26.87;61.79
53270;BME280;39159;45.634;9.420;2022-08-30T09:13:33;99169.16;;;27.03;61.84
53270;BME280;39159;45.634;9.420;2022-08-30T09:15:58;99173.59;;;27.01;61.04
53270;BME280;39159;45.634;9.420;2022-08-30T09:18:41;99172.56;;;26.84;62.23
53270;BME280;39159;45.634;9.420;2022-08-30T09:21:07;99182.94;;;26.83;61.53
53270;BME280;39159;45.634;9.420;2022-08-30T09:23:33;99175.06;;;26.71;61.69
53270;BME280;39159;45.634;9.420;2022-08-30T09:25:59;99180.28;;;26.65;61.35
53270;BME280;39159;45.634;9.420;2022-08-30T09:30:57;99172.38;;;26.50;62.65
53270;BME280;39159;45.634;9.420;2022-08-30T09:33:23;99172.81;;;26.41;62.78
53270;BME280;39159;45.634;9.420;2022-08-30T09:35:49;99174.84;;;26.37;62.40
53270;BME280;39159;45.634;9.420;2022-08-30T09:38:29;99169.00;;;26.17;62.90
53270;BME280;39159;45.634;9.420;2022-08-30T09:40:57;99168.56;;;26.18;63.73
53270;BME280;39159;45.634;9.420;2022-08-30T09:43:24;99169.41;;;26.15;63.26
53270;BME280;39159;45.634;9.420;2022-08-30T09:51:07;99172.31;;;25.87;63.28
53270;BME280;39159;45.634;9.420;2022-08-30T09:56:37;99175.16;;;25.69;63.63
53270;BME280;39159;45.634;9.420;2022-08-30T09:59:14;99173.59;;;25.64;64.35
53270;BME280;39159;45.634;9.420;2022-08-30T10:01:48;99170.41;;;25.62;65.18
53270;BME280;39159;45.634;9.420;2022-08-30T10:04:22;99177.19;;;25.61;66.05
53270;BME280;39159;45.634;9.420;2022-08-30T10:06:55;99179.56;;;25.66;66.21
53270;BME280;39159;45.634;9.420;2022-08-30T10:17:25;99169.59;;;25.65;67.02
53270;BME280;39159;45.634;9.420;2022-08-30T10:20:01;99168.41;;;25.66;67.61
53270;BME280;39159;45.634;9.420;2022-08-30T10:22:30;99167.56;;;25.69;68.51
53270;BME280;39159;45.634;9.420;2022-08-30T10:25:32;99165.56;;;25.70;67.92
53270;BME280;39159;45.634;9.420;2022-08-30T10:28:04;99166.00;;;25.64;66.51
53270;BME280;39159;45.634;9.420;2022-08-30T10:30:32;99165.22;;;25.60;67.89
53270;BME280;39159;45.634;9.420;2022-08-30T10:33:04;99172.41;;;25.61;69.52
53270;BME280;39159;45.634;9.420;2022-08-30T10:35:33;99170.41;;;25.62;69.96
53270;BME280;39159;45.634;9.420;2022-08-30T10:38:05;99168.78;;;25.61;68.23
53270;BME280;39159;45.634;9.420;2022-08-30T10:40:33;99173.25;;;25.44;69.37
53270;BME280;39159;45.634;9.420;2022-08-30T10:46:04;99178.06;;;25.29;70.87
53270;BME280;39159;45.634;9.420;2022-08-30T10:48:36;99177.28;;;25.25;71.29
53270;BME280;39159;45.634;9.420;2022-08-30T10:51:08;99176.06;;;25.30;71.19
53270;BME280;39159;45.634;9.420;2022-08-30T10:53:52;99171.66;;;25.32;72.68
53270;BME280;39159;45.634;9.420;2022-08-30T10:56:19;99172.47;;;25.36;72.54
53270;BME280;39159;45.634;9.420;2022-08-30T10:58:46;99155.69;;;25.40;72.04
53270;BME280;39159;45.634;9.420;2022-08-30T11:04:03;99148.06;;;25.48;72.08
53270;BME280;39159;45.634;9.420;2022-08-30T11:06:58;99145.28;;;25.48;71.58
53270;BME280;39159;45.634;9.420;2022-08-30T11:12:09;99132.06;;;25.66;72.12
53270;BME280;39159;45.634;9.420;2022-08-30T11:14:43;99130.03;;;25.74;70.84
53270;BME280;39159;45.634;9.420;2022-08-30T11:17:42;99121.19;;;25.82;71.34
53270;BME280;39159;45.634;9.420;2022-08-30T11:20:01;99116.38;;;25.94;71.58
53270;BME280;39159;45.634;9.420;2022-08-30T11:22:34;99116.75;;;25.99;71.40
53270;BME280;39159;45.634;9.420;2022-08-30T11:27:38;99109.06;;;26.14;68.83
53270;BME280;39159;45.634;9.420;2022-08-30T11:30:44;99106.66;;;26.16;68.68
53270;BME280;39159;45.634;9.420;2022-08-30T11:40:52;99107.34;;;26.31;71.11
53270;BME280;39159;45.634;9.420;2022-08-30T11:48:44;99089.53;;;26.11;69.85
53270;BME280;39159;45.634;9.420;2022-08-30T11:51:36;99096.19;;;26.27;70.63
53270;BME280;39159;45.634;9.420;2022-08-30T12:01:48;99101.94;;;26.62;68.41
53270;BME280;39159;45.634;9.420;2022-08-30T12:14:20;99080.47;;;26.44;69.53
53270;BME280;39159;45.634;9.420;2022-08-30T12:16:54;99081.25;;;26.45;68.39
53270;BME280;39159;45.634;9.420;2022-08-30T12:19:46;99073.66;;;26.45;68.48
53270;BME280;39159;45.634;9.420;2022-08-30T12:22:15;99075.13;;;26.64;68.61
53270;BME280;39159;45.634;9.420;2022-08-30T12:24:42;99071.56;;;26.60;67.89
53270;BME280;39159;45.634;9.420;2022-08-30T12:27:21;99071.47;;;26.71;66.94
53270;BME280;39159;45.634;9.420;2022-08-30T12:29:51;99066.59;;;26.79;66.61
53270;BME280;39159;45.634;9.420;2022-08-30T12:32:17;99067.22;;;26.97;67.03
53270;BME280;39159;45.634;9.420;2022-08-30T12:39:37;99057.22;;;27.34;65.72
53270;BME280;39159;45.634;9.420;2022-08-30T12:42:37;99055.25;;;27.31;66.75
53270;BME280;39159;45.634;9.420;2022-08-30T12:44:59;99043.13;;;27.41;65.50
53270;BME280;39159;45.634;9.420;2022-08-30T12:47:31;99039.19;;;27.35;66.11
53270;BME280;39159;45.634;9.420;2022-08-30T12:50:02;99053.97;;;27.39;67.95
53270;BME280;39159;45.634;9.420;2022-08-30T12:52:30;99039.06;;;27.46;67.77
53270;BME280;39159;45.634;9.420;2022-08-30T12:57:53;99043.78;;;27.53;64.84
53270;BME280;39159;45.634;9.420;2022-08-30T13:00:37;99047.03;;;27.47;66.45
53270;BME280;39159;45.634;9.420;2022-08-30T13:03:04;99036.63;;;27.48;66.20
53270;BME280;39159;45.634;9.420;2022-08-30T13:16:22;99034.31;;;27.70;64.62
53270;BME280;39159;45.634;9.420;2022-08-30T13:18:53;99031.09;;;27.72;63.38
53270;BME280;39159;45.634;9.420;2022-08-30T13:23:47;99024.31;;;28.00;63.77
53270;BME280;39159;45.634;9.420;2022-08-30T13:26:12;99019.16;;;27.95;63.23
53270;BME280;39159;45.634;9.420;2022-08-30T13:29:13;99022.53;;;28.09;62.98
53270;BME280;39159;45.634;9.420;2022-08-30T13:31:29;99007.72;;;28.09;63.06
53270;BME280;39159;45.634;9.420;2022-08-30T13:33:55;99006.28;;;28.24;62.70
53270;BME280;39159;45.634;9.420;2022-08-30T13:36:21;99001.03;;;28.50;62.13
53270;BME280;39159;45.634;9.420;2022-08-30T13:38:49;99002.56;;;28.31;60.20
53270;BME280;39159;45.634;9.420;2022-08-30T13:41:14;98999.69;;;28.11;62.32
53270;BME280;39159;45.634;9.420;2022-08-30T13:43:39;98992.09;;;27.84;61.95
53270;BME280;39159;45.634;9.420;2022-08-30T13:46:05;98996.91;;;28.07;62.58
53270;BME280;39159;45.634;9.420;2022-08-30T13:48:31;98984.72;;;28.41;61.54
53270;BME280;39159;45.634;9.420;2022-08-30T13:50:57;98970.50;;;28.76;61.60
53270;BME280;39159;45.634;9.420;2022-08-30T13:53:22;98965.81;;;28.69;59.96
53270;BME280;39159;45.634;9.420;2022-08-30T13:55:48;98967.88;;;28.65;60.08
53270;BME280;39159;45.634;9.420;2022-08-30T13:58:13;98955.66;;;28.55;59.36
53270;BME280;39159;45.634;9.420;2022-08-30T14:00:40;98958.81;;;28.34;59.85
53270;BME280;39159;45.634;9.420;2022-08-30T14:03:05;98949.72;;;28.49;60.58
53270;BME280;39159;45.634;9.420;2022-08-30T14:05:32;98932.94;;;28.46;59.90
53270;BME280;39159;45.634;9.420;2022-08-30T14:07:57;98927.75;;;28.44;59.03
53270;BME280;39159;45.634;9.420;2022-08-30T14:10:23;98927.44;;;28.39;58.39
53270;BME280;39159;45.634;9.420;2022-08-30T14:12:49;98921.88;;;28.59;58.31
53270;BME280;39159;45.634;9.420;2022-08-30T14:15:15;98926.50;;;28.69;57.28
53270;BME280;39159;45.634;9.420;2022-08-30T14:17:40;98925.50;;;28.59;57.97
53270;BME280;39159;45.634;9.420;2022-08-30T14:20:05;98933.47;;;28.81;59.43
53270;BME280;39159;45.634;9.420;2022-08-30T14:22:31;98928.34;;;28.96;57.73
53270;BME280;39159;45.634;9.420;2022-08-30T14:24:57;98925.97;;;28.94;57.95
53270;BME280;39159;45.634;9.420;2022-08-30T14:27:25;98928.63;;;29.01;56.78
53270;BME280;39159;45.634;9.420;2022-08-30T14:29:50;98923.00;;;29.01;56.79